Time;durP1;ratioP1;P1;durP2;ratioP2;P2;SDS_P1;SDS_P2;PMS_P1;PMS_P2;Temp;Humidity;BMP_temperature;BMP_pressure;BME280_temperature;BME280_humidity;BME280_pressure;Samples;Min_cycle;Max_cycle;Signal;HPM_P1;HPM_P2
2022/03/14 00:00:08;;;;;;;;;;;;;;;21.26;43.56;101224.44;7286865;19;153758;-53
2022/03/14 00:02:35;;;;;;;;;;;;;;;21.26;43.67;101235.66;7281204;19;153335;-53
2022/03/14 00:05:05;;;;;;;;;;;;;;;21.26;43.56;101230.06;7276327;19;154106;-53
2022/03/14 00:07:36;;;;;;;;;;;;;;;21.24;43.29;101232.34;7281768;19;152001;-53
2022/03/14 00:10:03;;;;;;;;;;;;;;;21.25;43.45;101225.59;7280285;19;153013;-53
2022/03/14 00:12:31;;;;;;;;;;;;;;;21.27;43.70;101241.00;7277898;19;152964;-53
2022/03/14 00:14:59;;;;;;;;;;;;;;;21.27;43.45;101229.75;7281765;19;151608;-52
2022/03/14 00:17:26;;;;;;;;;;;;;;;21.26;43.63;101239.31;7281726;19;153235;-52
2022/03/14 00:19:57;;;;;;;;;;;;;;;21.26;43.51;101236.50;7276405;19;154622;-52
2022/03/14 00:22:24;;;;;;;;;;;;;;;21.25;43.74;101250.88;7289064;19;151706;-53
2022/03/14 00:24:50;;;;;;;;;;;;;;;21.24;43.39;101250.06;7277584;19;154032;-53
2022/03/14 00:27:17;;;;;;;;;;;;;;;21.23;43.67;101251.19;7281367;19;151791;-53
2022/03/14 00:29:45;;;;;;;;;;;;;;;21.23;43.82;101267.22;7278180;19;153819;-53
2022/03/14 00:32:12;;;;;;;;;;;;;;;21.22;43.63;101268.34;7279763;19;154241;-53
2022/03/14 00:34:38;;;;;;;;;;;;;;;21.21;43.46;101277.94;7280785;19;152003;-53
2022/03/14 00:37:05;;;;;;;;;;;;;;;21.19;43.68;101289.47;7281024;19;153769;-53
2022/03/14 00:39:32;;;;;;;;;;;;;;;21.18;43.54;101287.78;7280507;19;154161;-53
2022/03/14 00:41:59;;;;;;;;;;;;;;;21.16;43.67;101292.91;7280590;19;151859;-54
2022/03/14 00:44:26;;;;;;;;;;;;;;;21.15;44.19;101302.47;7285176;19;152798;-53
2022/03/14 00:46:52;;;;;;;;;;;;;;;21.13;44.11;101299.09;7280247;19;151572;-54
2022/03/14 00:49:19;;;;;;;;;;;;;;;21.13;43.97;101309.50;7280228;19;153324;-54
2022/03/14 00:51:46;;;;;;;;;;;;;;;21.11;44.13;101306.16;7279461;19;154199;-54
2022/03/14 00:54:13;;;;;;;;;;;;;;;21.10;44.22;101321.34;7277468;19;152394;-53
2022/03/14 00:56:40;;;;;;;;;;;;;;;21.09;44.65;101322.47;7280041;19;152312;-53
2022/03/14 00:59:06;;;;;;;;;;;;;;;21.05;44.76;101322.25;7278973;19;154301;-53
2022/03/14 01:01:33;;;;;;;;;;;;;;;21.09;44.90;101336.50;7279726;19;151753;-53
2022/03/14 01:04:06;;;;;;;;;;;;;;;21.05;45.11;101344.72;7278847;19;153511;-54
2022/03/14 01:06:34;;;;;;;;;;;;;;;21.03;44.87;101349.78;7284167;19;153330;-54
2022/03/14 01:09:00;;;;;;;;;;;;;;;21.01;44.83;101340.00;7277906;19;153837;-53
2022/03/14 01:11:27;;;;;;;;;;;;;;;21.00;45.03;101344.78;7276256;19;153274;-53
2022/03/14 01:13:55;;;;;;;;;;;;;;;21.00;44.90;101356.03;7278822;19;151938;-54
2022/03/14 01:16:26;;;;;;;;;;;;;;;20.97;45.29;101358.59;7278167;19;152304;-53
2022/03/14 01:18:53;;;;;;;;;;;;;;;20.97;44.91;101362.25;7277950;19;153455;-53
2022/03/14 01:21:20;;;;;;;;;;;;;;;20.95;45.14;101358.91;7278291;19;151915;-53
2022/03/14 01:23:46;;;;;;;;;;;;;;;20.92;44.82;101372.72;7276780;19;152570;-53
2022/03/14 01:26:13;;;;;;;;;;;;;;;20.89;45.00;101371.34;7277848;19;153325;-53
2022/03/14 01:28:40;;;;;;;;;;;;;;;20.89;45.09;101373.31;7286262;19;152093;-53
2022/03/14 01:31:07;;;;;;;;;;;;;;;20.86;44.71;101383.16;7278434;19;152134;-54
2022/03/14 01:33:34;;;;;;;;;;;;;;;20.83;45.17;101379.00;7278795;19;152228;-53
2022/03/14 01:36:01;;;;;;;;;;;;;;;20.85;45.21;101389.91;7278888;19;153795;-54
2022/03/14 01:38:27;;;;;;;;;;;;;;;20.84;45.06;101396.69;7275597;19;153444;-52
2022/03/14 01:40:55;;;;;;;;;;;;;;;20.80;45.10;101404.84;7277245;19;151801;-53
2022/03/14 01:43:24;;;;;;;;;;;;;;;20.78;44.81;101398.72;7278953;19;152555;-54
2022/03/14 01:45:54;;;;;;;;;;;;;;;20.78;45.39;101398.72;7275085;19;154074;-54
2022/03/14 01:48:20;;;;;;;;;;;;;;;20.76;45.22;101406.59;7283017;19;152227;-54
2022/03/14 01:50:47;;;;;;;;;;;;;;;20.74;44.80;101410.84;7277775;19;154256;-53
2022/03/14 01:53:15;;;;;;;;;;;;;;;20.73;44.97;101412.81;7276236;19;151751;-53
2022/03/14 01:55:41;;;;;;;;;;;;;;;20.72;44.84;101427.16;7276777;19;152962;-53
2022/03/14 01:58:09;;;;;;;;;;;;;;;20.69;45.07;101425.78;7276393;19;153978;-53
2022/03/14 02:00:36;;;;;;;;;;;;;;;20.67;45.03;101438.47;7277515;19;151774;-54
2022/03/14 02:03:03;;;;;;;;;;;;;;;20.65;45.42;101440.72;7278248;19;153447;-54
2022/03/14 02:05:33;;;;;;;;;;;;;;;20.63;45.42;101452.25;7273675;19;154333;-53
2022/03/14 02:08:00;;;;;;;;;;;;;;;20.63;45.44;101457.00;7277513;19;151641;-53
2022/03/14 02:10:26;;;;;;;;;;;;;;;20.60;45.33;101458.47;7280983;19;152964;-54
2022/03/14 02:12:53;;;;;;;;;;;;;;;20.58;45.47;101462.72;7275610;19;151858;-54
2022/03/14 02:15:20;;;;;;;;;;;;;;;20.56;45.51;101473.38;7277039;19;152657;-53
2022/03/14 02:17:47;;;;;;;;;;;;;;;20.52;45.58;101470.34;7288057;19;154405;-53
2022/03/14 02:20:14;;;;;;;;;;;;;;;20.52;45.54;101470.34;7290624;19;152259;-54
2022/03/14 02:22:40;;;;;;;;;;;;;;;20.48;45.74;101477.69;7291259;19;152824;-52
2022/03/14 02:25:08;;;;;;;;;;;;;;;20.46;45.88;101481.91;7288685;19;153975;-53
2022/03/14 02:27:36;;;;;;;;;;;;;;;20.46;46.06;101491.16;7291232;19;151639;-52
2022/03/14 02:30:03;;;;;;;;;;;;;;;20.44;45.71;101486.97;7290396;19;152651;-53
2022/03/14 02:32:29;;;;;;;;;;;;;;;20.42;46.27;101487.25;7299023;19;153271;-53
2022/03/14 02:34:56;;;;;;;;;;;;;;;20.40;45.74;101489.50;7290563;19;152586;-53
2022/03/14 02:37:23;;;;;;;;;;;;;;;20.39;46.04;101497.13;7288301;19;154241;-53
2022/03/14 02:39:50;;;;;;;;;;;;;;;20.37;46.21;101512.56;7290675;19;151918;-53
2022/03/14 02:42:17;;;;;;;;;;;;;;;20.35;45.77;101515.66;7291403;19;152685;-53
2022/03/14 02:44:43;;;;;;;;;;;;;;;20.32;45.88;101512.59;7289796;19;153394;-53
2022/03/14 02:47:11;;;;;;;;;;;;;;;20.34;46.05;101513.16;7290323;19;151732;-53
2022/03/14 02:49:37;;;;;;;;;;;;;;;20.31;46.39;101522.16;7288628;19;153385;-53
2022/03/14 02:52:04;;;;;;;;;;;;;;;20.29;45.97;101524.41;7288634;19;153855;-54
2022/03/14 02:54:31;;;;;;;;;;;;;;;20.25;46.13;101526.97;7298165;19;151746;-53
2022/03/14 02:56:58;;;;;;;;;;;;;;;20.24;46.10;101533.69;7289030;19;153353;-53
2022/03/14 02:59:26;;;;;;;;;;;;;;;20.24;46.22;101542.13;7289588;19;151923;-53
2022/03/14 03:01:53;;;;;;;;;;;;;;;20.22;46.33;101549.97;7289603;19;152688;-53
2022/03/14 03:04:20;;;;;;;;;;;;;;;20.21;45.88;101551.13;7289095;19;152984;-53
2022/03/14 03:06:46;;;;;;;;;;;;;;;20.18;46.39;101562.91;7290710;19;152394;-53
2022/03/14 03:09:13;;;;;;;;;;;;;;;20.16;46.11;101565.19;7290012;19;155025;-53
2022/03/14 03:11:40;;;;;;;;;;;;;;;20.16;46.24;101578.38;7289757;19;153971;-53
2022/03/14 03:14:07;;;;;;;;;;;;;;;20.14;46.49;101580.63;7288434;19;151850;-53
2022/03/14 03:16:34;;;;;;;;;;;;;;;20.13;46.21;101587.34;7297168;19;152698;-53
2022/03/14 03:19:01;;;;;;;;;;;;;;;20.12;46.08;101594.13;7289243;19;151997;-54
2022/03/14 03:21:28;;;;;;;;;;;;;;;20.09;46.57;101592.72;7288268;19;153124;-53
2022/03/14 03:23:56;;;;;;;;;;;;;;;20.06;46.49;101592.44;7287646;19;154561;-53
2022/03/14 03:26:27;;;;;;;;;;;;;;;20.06;46.34;101600.88;7284385;19;151925;-53
2022/03/14 03:28:54;;;;;;;;;;;;;;;20.04;46.40;101601.16;7283309;19;152528;-54
2022/03/14 03:31:21;;;;;;;;;;;;;;;20.03;46.23;101607.06;7281157;19;153093;-53
2022/03/14 03:33:50;;;;;;;;;;;;;;;20.01;46.51;101618.56;7282879;19;152397;-54
2022/03/14 03:36:17;;;;;;;;;;;;;;;19.99;46.16;101621.66;7282127;19;152489;-53
2022/03/14 03:38:44;;;;;;;;;;;;;;;19.97;46.04;101623.91;7287349;19;152050;-53
2022/03/14 03:41:10;;;;;;;;;;;;;;;19.97;46.13;101632.34;7280128;19;154494;-54
2022/03/14 03:43:37;;;;;;;;;;;;;;;19.93;46.34;101634.03;7280832;19;153800;-53
2022/03/14 03:46:04;;;;;;;;;;;;;;;19.92;46.02;101635.16;7278966;19;151619;-52
2022/03/14 03:48:31;;;;;;;;;;;;;;;19.91;46.18;101629.81;7282446;19;153535;-52
2022/03/14 03:50:58;;;;;;;;;;;;;;;19.90;46.22;101640.22;7279781;19;153975;-53
2022/03/14 03:53:24;;;;;;;;;;;;;;;19.88;46.32;101648.09;7280694;19;151680;-53
2022/03/14 03:55:51;;;;;;;;;;;;;;;19.87;46.11;101651.16;7281285;19;152664;-54
2022/03/14 03:58:18;;;;;;;;;;;;;;;19.86;46.26;101657.88;7288359;19;154195;-54
2022/03/14 04:00:45;;;;;;;;;;;;;;;19.83;46.34;101659.31;7280685;19;152704;-52
2022/03/14 04:03:12;;;;;;;;;;;;;;;19.83;46.46;101664.09;7280424;19;155005;-53
2022/03/14 04:05:41;;;;;;;;;;;;;;;19.80;46.33;101662.72;7280921;19;151547;-54
2022/03/14 04:08:10;;;;;;;;;;;;;;;19.81;46.57;101677.53;7281072;19;153366;-53
2022/03/14 04:10:37;;;;;;;;;;;;;;;19.79;46.69;101677.84;7278248;19;153929;-53
2022/03/14 04:13:06;;;;;;;;;;;;;;;19.78;46.51;101686.53;7280662;19;151592;-53
2022/03/14 04:15:43;;;;;;;;;;;;;;;19.78;46.45;101692.13;7282017;19;153486;-54
2022/03/14 04:18:10;;;;;;;;;;;;;;;19.76;46.54;101688.81;7278356;19;153843;-53
2022/03/14 04:20:37;;;;;;;;;;;;;;;19.79;46.30;101691.03;7289374;19;152293;-52
2022/03/14 04:23:04;;;;;;;;;;;;;;;19.77;46.68;101702.50;7280037;19;155066;-53
2022/03/14 04:25:30;;;;;;;;;;;;;;;19.76;46.41;101705.63;7280574;19;151515;-53
2022/03/14 04:27:57;;;;;;;;;;;;;;;19.73;46.53;101707.00;7281048;19;153535;-53
2022/03/14 04:30:24;;;;;;;;;;;;;;;19.73;46.55;101709.81;7280142;19;153838;-53
2022/03/14 04:32:51;;;;;;;;;;;;;;;19.71;46.47;101717.69;7281050;19;152026;-52
2022/03/14 04:35:18;;;;;;;;;;;;;;;19.69;46.54;101728.34;7282056;19;153014;-53
2022/03/14 04:37:45;;;;;;;;;;;;;;;19.67;46.42;101724.97;7280003;19;154520;-53
2022/03/14 04:40:13;;;;;;;;;;;;;;;19.64;46.23;101728.34;7278254;19;152111;-54
2022/03/14 04:42:40;;;;;;;;;;;;;;;19.64;46.18;101724.69;7287576;19;153787;-53
2022/03/14 04:45:07;;;;;;;;;;;;;;;19.62;46.38;101743.78;7278093;19;151823;-52
2022/03/14 04:47:34;;;;;;;;;;;;;;;19.62;46.03;101739.03;7279134;19;153603;-52
2022/03/14 04:50:02;;;;;;;;;;;;;;;19.59;46.37;101744.31;7276816;19;154209;-53
2022/03/14 04:52:29;;;;;;;;;;;;;;;19.57;46.12;101750.25;7278318;19;151531;-53
2022/03/14 04:54:56;;;;;;;;;;;;;;;19.58;45.97;101746.28;7279210;19;152682;-53
2022/03/14 04:57:24;;;;;;;;;;;;;;;19.56;46.14;101747.72;7279335;19;154082;-53
2022/03/14 04:59:50;;;;;;;;;;;;;;;19.53;46.27;101743.50;7280951;19;151730;-52
2022/03/14 05:02:22;;;;;;;;;;;;;;;19.54;46.46;101747.97;7279887;19;152677;-52
2022/03/14 05:04:52;;;;;;;;;;;;;;;19.50;46.51;101749.66;7284970;19;153916;-52
2022/03/14 05:07:20;;;;;;;;;;;;;;;19.51;46.40;101748.56;7277192;19;151876;-52
2022/03/14 05:09:46;;;;;;;;;;;;;;;19.49;46.26;101750.78;7278302;19;152441;-52
2022/03/14 05:12:14;;;;;;;;;;;;;;;19.51;46.24;101751.34;7280635;19;152752;-53
2022/03/14 05:14:41;;;;;;;;;;;;;;;19.48;46.34;101758.38;7280205;19;152757;-53
2022/03/14 05:17:08;;;;;;;;;;;;;;;19.47;46.63;101758.66;7279203;19;153736;-52
2022/03/14 05:19:35;;;;;;;;;;;;;;;19.47;46.23;101764.25;7278883;19;151868;-53
2022/03/14 05:22:06;;;;;;;;;;;;;;;19.45;46.67;101764.53;7280531;19;152934;-53
2022/03/14 05:24:33;;;;;;;;;;;;;;;19.43;46.79;101775.19;7278464;19;153260;-53
2022/03/14 05:27:00;;;;;;;;;;;;;;;19.43;46.59;101782.72;7282396;19;152324;-53
2022/03/14 05:29:27;;;;;;;;;;;;;;;19.43;46.44;101779.91;7279191;19;153066;-53
2022/03/14 05:31:54;;;;;;;;;;;;;;;19.44;47.00;101779.66;7278938;19;151781;-53
2022/03/14 05:34:20;;;;;;;;;;;;;;;19.50;47.09;101784.16;7278196;19;152555;-53
2022/03/14 05:36:47;;;;;;;;;;;;;;;19.55;47.47;101780.50;7276714;19;155239;-53
2022/03/14 05:39:14;;;;;;;;;;;;;;;19.58;46.98;101781.91;7278445;19;151903;-52
2022/03/14 05:41:41;;;;;;;;;;;;;;;19.63;48.22;101784.69;7279529;19;153991;-51
2022/03/14 05:44:08;;;;;;;;;;;;;;;19.68;47.98;101799.53;7277727;19;154133;-53
2022/03/14 05:46:36;;;;;;;;;;;;;;;19.73;47.84;101802.34;7285278;19;151835;-53
2022/03/14 05:49:04;;;;;;;;;;;;;;;19.78;47.79;101807.09;7276799;19;154209;-53
2022/03/14 05:51:34;;;;;;;;;;;;;;;19.83;48.17;101826.72;7275354;19;151952;-51
2022/03/14 05:54:01;;;;;;;;;;;;;;;19.88;48.52;101833.19;7276983;19;152525;-52
2022/03/14 05:56:27;;;;;;;;;;;;;;;19.94;48.70;101837.63;7277415;19;153473;-52
2022/03/14 05:58:55;;;;;;;;;;;;;;;20.01;48.40;101858.97;7276034;19;151632;-52
2022/03/14 06:01:26;;;;;;;;;;;;;;;20.06;48.39;101856.16;7276420;19;152648;-52
2022/03/14 06:03:53;;;;;;;;;;;;;;;20.13;48.25;101859.50;7275191;19;153490;-53
2022/03/14 06:06:20;;;;;;;;;;;;;;;20.20;48.36;101868.47;7277822;19;153869;-53
2022/03/14 06:08:46;;;;;;;;;;;;;;;20.25;48.16;101871.28;7285504;19;152798;-52
2022/03/14 06:11:16;;;;;;;;;;;;;;;20.32;48.13;101877.44;7274126;19;151698;-52
2022/03/14 06:13:43;;;;;;;;;;;;;;;20.38;48.03;101882.78;7276063;19;153548;-52
2022/03/14 06:16:10;;;;;;;;;;;;;;;20.45;47.95;101885.28;7277347;19;154317;-52
2022/03/14 06:18:37;;;;;;;;;;;;;;;20.49;48.12;101886.38;7277393;19;151587;-53
2022/03/14 06:21:04;;;;;;;;;;;;;;;20.55;48.20;101888.06;7276329;19;152825;-53
2022/03/14 06:23:31;;;;;;;;;;;;;;;20.62;48.29;101883.00;7276721;19;154684;-52
2022/03/14 06:25:57;;;;;;;;;;;;;;;20.67;47.36;101882.94;7273998;19;153490;-52
2022/03/14 06:28:24;;;;;;;;;;;;;;;20.72;47.14;101891.34;7275036;19;152674;-53
2022/03/14 06:30:51;;;;;;;;;;;;;;;20.77;47.21;101902.56;7282226;19;154017;-53
2022/03/14 06:33:18;;;;;;;;;;;;;;;20.82;47.07;101894.13;7276910;19;152711;-53
2022/03/14 06:35:46;;;;;;;;;;;;;;;20.89;47.21;101901.41;7276762;19;155190;-52
2022/03/14 06:38:12;;;;;;;;;;;;;;;20.94;46.74;101904.19;7277751;19;152129;-52
2022/03/14 06:40:41;;;;;;;;;;;;;;;20.98;46.65;101922.16;7277637;19;152688;-52
2022/03/14 06:43:12;;;;;;;;;;;;;;;21.04;46.65;101915.38;7276234;19;153333;-52
2022/03/14 06:45:39;;;;;;;;;;;;;;;21.11;46.65;101924.34;7277541;19;152302;-52
2022/03/14 06:48:06;;;;;;;;;;;;;;;21.15;46.34;101928.28;7274161;19;153363;-52
2022/03/14 06:50:36;;;;;;;;;;;;;;;21.20;45.84;101931.06;7276104;19;153322;-52
2022/03/14 06:53:09;;;;;;;;;;;;;;;21.25;45.96;101933.88;7285274;19;151581;-53
2022/03/14 06:55:36;;;;;;;;;;;;;;;21.32;45.62;101950.41;7273054;19;153520;-52
2022/03/14 06:58:03;;;;;;;;;;;;;;;21.36;45.43;101955.16;7277261;19;151783;-52
2022/03/14 07:00:30;;;;;;;;;;;;;;;21.41;45.38;101952.31;7273480;19;153513;-53
2022/03/14 07:02:57;;;;;;;;;;;;;;;21.44;45.48;101957.34;7276039;19;153362;-52
2022/03/14 07:05:26;;;;;;;;;;;;;;;21.49;45.29;101962.94;7283034;19;151550;-52
2022/03/14 07:07:53;;;;;;;;;;;;;;;21.54;45.38;101968.53;7282292;19;152475;-52
2022/03/14 07:10:20;;;;;;;;;;;;;;;21.58;46.43;101975.25;7280480;19;153166;-52
2022/03/14 07:12:48;;;;;;;;;;;;;;;21.62;46.27;101981.97;7283820;19;151955;-52
2022/03/14 07:15:17;;;;;;;;;;;;;;;21.65;45.48;101981.41;7288491;19;152533;-52
2022/03/14 07:17:44;;;;;;;;;;;;;;;21.70;45.96;101972.94;7281613;19;151587;-52
2022/03/14 07:20:11;;;;;;;;;;;;;;;21.81;45.55;101978.47;7283229;19;151910;-53
2022/03/14 07:22:48;;;;;;;;;;;;;;;21.46;41.59;101985.19;7281321;19;153218;-52
2022/03/14 07:25:17;;;;;;;;;;;;;;;21.56;42.33;102000.03;7283344;19;151719;-52
2022/03/14 07:27:44;;;;;;;;;;;;;;;21.62;42.21;101993.22;7278844;19;153705;-51
2022/03/14 07:30:11;;;;;;;;;;;;;;;21.67;42.45;101997.97;7281919;19;154070;-52
2022/03/14 07:32:38;;;;;;;;;;;;;;;21.69;42.27;102005.03;7283102;19;151982;-53
2022/03/14 07:35:05;;;;;;;;;;;;;;;21.70;42.03;102009.53;7281043;19;152505;-52
2022/03/14 07:37:37;;;;;;;;;;;;;;;21.72;42.30;102006.41;7289305;19;155957;-52
2022/03/14 07:40:04;;;;;;;;;;;;;;;21.59;39.98;102007.03;7282530;19;153085;-53
2022/03/14 07:42:31;;;;;;;;;;;;;;;21.54;40.78;102019.16;7280586;19;154559;-52
2022/03/14 07:44:58;;;;;;;;;;;;;;;21.54;40.31;102012.69;7283998;19;152023;-53
2022/03/14 07:47:25;;;;;;;;;;;;;;;21.52;40.34;102026.22;7280716;19;153495;-53
2022/03/14 07:49:52;;;;;;;;;;;;;;;21.49;40.33;102021.16;7281827;19;153844;-53
2022/03/14 07:52:19;;;;;;;;;;;;;;;21.47;39.96;102026.25;7282125;19;151809;-53
2022/03/14 07:54:46;;;;;;;;;;;;;;;21.45;39.98;102029.31;7283100;19;153294;-52
2022/03/14 07:57:12;;;;;;;;;;;;;;;21.45;40.07;102026.50;7287959;19;154142;-53
2022/03/14 07:59:39;;;;;;;;;;;;;;;21.42;39.85;102029.91;7282328;19;151974;-53
2022/03/14 08:02:06;;;;;;;;;;;;;;;21.41;39.87;102039.47;7281317;19;152909;-53
2022/03/14 08:04:37;;;;;;;;;;;;;;;21.40;39.96;102043.41;7282363;19;151860;-52
2022/03/14 08:07:03;;;;;;;;;;;;;;;21.37;39.92;102052.44;7280364;19;152913;-53
2022/03/14 08:09:30;;;;;;;;;;;;;;;21.34;40.27;102063.41;7277195;19;153298;-52
2022/03/14 08:11:58;;;;;;;;;;;;;;;21.30;40.15;102063.97;7282060;19;151626;-53
2022/03/14 08:14:25;;;;;;;;;;;;;;;21.29;40.10;102067.94;7280425;19;151806;-53
2022/03/14 08:16:52;;;;;;;;;;;;;;;21.25;39.66;102065.97;7278379;19;153893;-53
2022/03/14 08:19:20;;;;;;;;;;;;;;;21.22;39.88;102069.34;7289548;19;151954;-53
2022/03/14 08:21:47;;;;;;;;;;;;;;;21.20;39.58;102071.59;7278056;19;154034;-52
2022/03/14 08:24:14;;;;;;;;;;;;;;;21.17;39.81;102063.72;7281092;19;151701;-53
2022/03/14 08:26:42;;;;;;;;;;;;;;;21.16;39.81;102071.34;7278361;19;152925;-53
2022/03/14 08:29:09;;;;;;;;;;;;;;;21.15;40.04;102080.06;7279521;19;153197;-51
2022/03/14 08:31:37;;;;;;;;;;;;;;;21.20;40.21;102088.47;7280606;19;151893;-53
2022/03/14 08:34:06;;;;;;;;;;;;;;;21.17;39.93;102089.88;7278511;19;153561;-53
2022/03/14 08:36:35;;;;;;;;;;;;;;;21.12;40.37;102087.03;7276777;19;153431;-52
2022/03/14 08:39:03;;;;;;;;;;;;;;;21.17;39.98;102089.03;7281760;19;151775;-52
2022/03/14 08:41:31;;;;;;;;;;;;;;;21.08;40.33;102083.13;7287243;19;153747;-52
2022/03/14 08:43:58;;;;;;;;;;;;;;;21.04;39.91;102086.78;7280847;19;151645;-52
2022/03/14 08:46:25;;;;;;;;;;;;;;;21.01;40.26;102092.97;7280925;19;153510;-52
2022/03/14 08:48:51;;;;;;;;;;;;;;;20.98;40.17;102101.97;7277052;19;153349;-53
2022/03/14 08:51:19;;;;;;;;;;;;;;;20.94;39.91;102104.50;7280671;19;151920;-52
2022/03/14 08:53:46;;;;;;;;;;;;;;;20.90;40.14;102119.38;7280513;19;153469;-52
2022/03/14 08:56:12;;;;;;;;;;;;;;;20.86;40.24;102124.72;7278111;19;153319;-53
2022/03/14 08:58:39;;;;;;;;;;;;;;;20.86;40.04;102127.53;7280273;19;151964;-53
2022/03/14 09:01:07;;;;;;;;;;;;;;;20.82;40.42;102132.88;7278774;19;153413;-53
2022/03/14 09:03:34;;;;;;;;;;;;;;;20.79;40.14;102135.44;7287048;19;154673;-53
2022/03/14 09:06:00;;;;;;;;;;;;;;;20.78;40.37;102130.94;7280667;19;153303;-53
2022/03/14 09:08:27;;;;;;;;;;;;;;;20.78;40.25;102139.34;7277162;19;153627;-53
2022/03/14 09:10:55;;;;;;;;;;;;;;;20.75;40.33;102140.78;7278031;19;151824;-53
2022/03/14 09:13:23;;;;;;;;;;;;;;;20.70;39.95;102143.56;7279060;19;153271;-53
2022/03/14 09:15:51;;;;;;;;;;;;;;;20.69;40.04;102147.50;7278749;19;154146;-53
2022/03/14 09:18:20;;;;;;;;;;;;;;;20.69;40.00;102150.31;7279483;19;151603;-52
2022/03/14 09:20:49;;;;;;;;;;;;;;;20.68;39.94;102148.63;7280301;19;153347;-53
2022/03/14 09:23:20;;;;;;;;;;;;;;;20.67;40.38;102158.16;7276890;19;153811;-53
2022/03/14 09:25:47;;;;;;;;;;;;;;;20.64;40.38;102155.91;7283464;19;151922;-53
2022/03/14 09:28:14;;;;;;;;;;;;;;;20.62;40.05;102165.75;7277527;19;153232;-53
2022/03/14 09:30:43;;;;;;;;;;;;;;;20.59;40.00;102158.72;7277475;19;151897;-52
2022/03/14 09:33:10;;;;;;;;;;;;;;;20.58;40.07;102161.81;7279825;19;153472;-55
2022/03/14 09:35:37;;;;;;;;;;;;;;;20.54;39.99;102163.47;7276604;19;155136;-53
2022/03/14 09:38:03;;;;;;;;;;;;;;;20.54;40.06;102171.91;7280181;19;152069;-52
2022/03/14 09:40:31;;;;;;;;;;;;;;;20.50;40.08;102167.97;7280079;19;152932;-53
2022/03/14 09:43:00;;;;;;;;;;;;;;;20.47;40.26;102174.16;7278427;19;154293;-53
2022/03/14 09:45:34;;;;;;;;;;;;;;;20.43;40.11;102171.06;7277569;19;151784;-53
2022/03/14 09:48:02;;;;;;;;;;;;;;;20.41;40.07;102174.13;7284424;19;151691;-52
2022/03/14 09:50:38;;;;;;;;;;;;;;;20.40;40.24;102171.59;7279444;19;151753;-53
2022/03/14 09:53:10;;;;;;;;;;;;;;;20.40;40.59;102182.81;7279510;19;153124;-53
2022/03/14 09:55:41;;;;;;;;;;;;;;;20.34;40.43;102182.00;7275225;19;154005;-53
2022/03/14 09:58:09;;;;;;;;;;;;;;;20.34;40.50;102184.81;7276742;19;151680;-55
2022/03/14 10:00:36;;;;;;;;;;;;;;;20.32;40.06;102180.56;7278701;19;156353;-53
2022/03/14 10:03:10;;;;;;;;;;;;;;;20.31;40.56;102187.28;7275575;19;153519;-52
2022/03/14 10:05:37;;;;;;;;;;;;;;;20.29;40.34;102193.19;7276782;19;152192;-52
2022/03/14 10:08:04;;;;;;;;;;;;;;;20.27;40.17;102205.78;7281532;19;154351;-53
2022/03/14 10:10:31;;;;;;;;;;;;;;;20.23;40.15;102202.69;7276355;19;151978;-53
2022/03/14 10:12:59;;;;;;;;;;;;;;;20.20;40.17;102197.63;7278992;19;153306;-53
2022/03/14 10:15:35;;;;;;;;;;;;;;;20.18;40.52;102197.06;7276233;19;152675;-53
2022/03/14 10:18:09;;;;;;;;;;;;;;;20.16;40.47;102213.34;7278020;19;152094;-53
2022/03/14 10:21:03;;;;;;;;;;;;;;;20.17;40.47;102214.19;7275603;19;153609;-53
2022/03/14 10:23:39;;;;;;;;;;;;;;;20.12;40.53;102209.41;7275350;19;157024;-53
2022/03/14 10:26:07;;;;;;;;;;;;;;;20.08;40.56;102213.03;7277624;19;151793;-53
2022/03/14 10:28:38;;;;;;;;;;;;;;;20.06;40.66;102221.72;7276654;19;152983;-53
2022/03/14 10:31:29;;;;;;;;;;;;;;;20.04;40.41;102226.75;7283430;19;155465;-53
2022/03/14 10:34:15;;;;;;;;;;;;;;;20.05;40.54;102233.19;7278303;19;152738;-53
2022/03/14 10:36:50;;;;;;;;;;;;;;;20.03;40.61;102233.50;7273635;19;155297;-52
2022/03/14 10:39:27;;;;;;;;;;;;;;;20.02;40.23;102223.38;7282831;19;152109;-52
2022/03/14 10:41:54;;;;;;;;;;;;;;;20.07;40.48;102233.78;7281956;19;153466;-53
2022/03/14 10:44:42;;;;;;;;;;;;;;;20.02;40.36;102242.19;7280781;19;156492;-53
2022/03/14 10:47:12;;;;;;;;;;;;;;;19.97;40.42;102241.03;7281900;19;152101;-53
2022/03/14 10:49:43;;;;;;;;;;;;;;;19.99;40.70;102247.19;7280021;19;153188;-53
2022/03/14 10:52:11;;;;;;;;;;;;;;;20.02;40.52;102251.44;7281817;19;153520;-52
2022/03/14 10:54:38;;;;;;;;;;;;;;;20.06;40.75;102248.94;7291283;19;152031;-53
2022/03/14 10:57:09;;;;;;;;;;;;;;;20.11;40.20;102246.16;7281627;19;154316;-53
2022/03/14 10:59:39;;;;;;;;;;;;;;;20.15;40.14;102245.31;7283855;19;151534;-53
2022/03/14 11:02:09;;;;;;;;;;;;;;;20.21;39.99;102251.81;7268852;19;153221;-53
2022/03/14 11:04:44;;;;;;;;;;;;;;;20.26;40.18;102249.84;7274707;19;152685;-52
2022/03/14 11:07:26;;;;;;;;;;;;;;;20.35;39.76;102258.63;7280937;19;151546;-52
2022/03/14 11:09:54;;;;;;;;;;;;;;;20.38;39.92;102250.50;7278777;19;151839;-52
2022/03/14 11:12:21;;;;;;;;;;;;;;;20.45;39.89;102246.56;7280308;19;153148;-52
2022/03/14 11:14:52;;;;;;;;;;;;;;;20.49;39.90;102247.72;7281572;19;152108;-53
2022/03/14 11:17:19;;;;;;;;;;;;;;;20.54;39.79;102256.97;7288178;19;153174;-53
2022/03/14 11:19:46;;;;;;;;;;;;;;;20.59;39.91;102248.56;7282808;19;151617;-53
2022/03/14 11:22:14;;;;;;;;;;;;;;;20.66;39.93;102245.50;7279818;19;152986;-53
2022/03/14 11:24:42;;;;;;;;;;;;;;;20.71;40.02;102252.00;7281595;19;153991;-53
2022/03/14 11:27:10;;;;;;;;;;;;;;;20.78;39.78;102257.31;7282846;19;151639;-54
2022/03/14 11:29:38;;;;;;;;;;;;;;;20.82;39.59;102245.25;7279189;19;152548;-53
2022/03/14 11:32:06;;;;;;;;;;;;;;;20.88;39.42;102245.25;7278252;19;154882;-53
2022/03/14 11:34:52;;;;;;;;;;;;;;;20.95;39.70;102243.00;7280074;19;152016;-53
2022/03/14 11:37:19;;;;;;;;;;;;;;;21.01;39.63;102247.53;7279820;19;154328;-53
2022/03/14 11:39:46;;;;;;;;;;;;;;;21.06;39.13;102245.56;7288599;19;154350;-52
2022/03/14 11:42:15;;;;;;;;;;;;;;;21.11;38.96;102239.94;7280360;19;153355;-53
2022/03/14 11:44:43;;;;;;;;;;;;;;;21.15;39.06;102238.28;7281648;19;154140;-53
2022/03/14 11:47:11;;;;;;;;;;;;;;;21.20;39.17;102234.63;7279172;19;151700;-53
2022/03/14 11:49:38;;;;;;;;;;;;;;;21.24;38.98;102236.59;7278267;19;153489;-52
2022/03/14 11:52:18;;;;;;;;;;;;;;;21.28;38.89;102234.91;7278548;19;155540;-52
2022/03/14 11:54:48;;;;;;;;;;;;;;;21.33;38.76;102236.88;7280949;19;152091;-53
2022/03/14 11:57:47;;;;;;;;;;;;;;;21.38;38.73;102250.06;7280084;19;152789;-53
2022/03/14 12:00:32;;;;;;;;;;;;;;;21.40;38.78;102254.28;7276288;19;153554;-53
2022/03/14 12:03:09;;;;;;;;;;;;;;;21.42;38.91;102259.63;7289722;19;151779;-53
2022/03/14 12:05:39;;;;;;;;;;;;;;;21.41;38.26;102255.13;7279739;19;156145;-53
2022/03/14 12:08:10;;;;;;;;;;;;;;;21.41;38.19;102255.13;7282497;19;153474;-53
2022/03/14 12:10:37;;;;;;;;;;;;;;;21.40;38.02;102257.09;7278168;19;153701;-54
2022/03/14 12:13:09;;;;;;;;;;;;;;;21.43;37.90;102248.13;7281185;19;153911;-53
2022/03/14 12:15:38;;;;;;;;;;;;;;;21.44;37.92;102260.22;7279025;19;152218;-53
2022/03/14 12:18:27;;;;;;;;;;;;;;;21.44;37.85;102254.59;7281854;19;153669;-53
2022/03/14 12:20:55;;;;;;;;;;;;;;;21.44;38.03;102252.59;7279508;19;154520;-54
2022/03/14 12:23:33;;;;;;;;;;;;;;;21.44;37.90;102248.97;7286601;19;151582;-53
2022/03/14 12:26:20;;;;;;;;;;;;;;;21.43;37.71;102241.66;7277077;19;152968;-54
2022/03/14 12:28:46;;;;;;;;;;;;;;;21.42;37.64;102246.41;7278496;19;151772;-53
2022/03/14 12:31:14;;;;;;;;;;;;;;;21.41;37.61;102244.72;7277992;19;153915;-53
2022/03/14 12:33:42;;;;;;;;;;;;;;;21.41;37.81;102241.91;7280210;19;154951;-52